sensor_id;sensor_type;location;lat;lon;timestamp;temperature;humidity
6666;DHT22;3369;49.906;8.598;2023-08-30T00:00:15;13.80;99.90
6666;DHT22;3369;49.906;8.598;2023-08-30T00:02:43;13.90;99.90
6666;DHT22;3369;49.906;8.598;2023-08-30T00:05:09;13.90;99.90
6666;DHT22;3369;49.906;8.598;2023-08-30T00:07:35;13.90;99.90
6666;DHT22;3369;49.906;8.598;2023-08-30T00:10:01;14.00;99.90
6666;DHT22;3369;49.906;8.598;2023-08-30T00:12:27;14.00;99.90
6666;DHT22;3369;49.906;8.598;2023-08-30T00:14:53;14.00;99.90
6666;DHT22;3369;49.906;8.598;2023-08-30T00:17:19;14.10;99.90
6666;DHT22;3369;49.906;8.598;2023-08-30T00:19:45;14.00;99.90
6666;DHT22;3369;49.906;8.598;2023-08-30T00:22:11;14.10;99.90
6666;DHT22;3369;49.906;8.598;2023-08-30T00:24:38;14.10;99.90
6666;DHT22;3369;49.906;8.598;2023-08-30T00:27:04;14.10;99.90
6666;DHT22;3369;49.906;8.598;2023-08-30T00:29:30;14.10;99.90
6666;DHT22;3369;49.906;8.598;2023-08-30T00:31:56;14.10;99.90
6666;DHT22;3369;49.906;8.598;2023-08-30T00:34:22;14.10;99.90
6666;DHT22;3369;49.906;8.598;2023-08-30T00:36:48;14.10;99.90
6666;DHT22;3369;49.906;8.598;2023-08-30T00:39:13;14.10;99.90
6666;DHT22;3369;49.906;8.598;2023-08-30T00:41:40;14.20;99.90
6666;DHT22;3369;49.906;8.598;2023-08-30T00:44:05;14.20;99.90
6666;DHT22;3369;49.906;8.598;2023-08-30T00:46:32;14.20;99.90
6666;DHT22;3369;49.906;8.598;2023-08-30T00:48:59;14.20;99.90
6666;DHT22;3369;49.906;8.598;2023-08-30T00:51:26;14.20;99.90
6666;DHT22;3369;49.906;8.598;2023-08-30T00:53:56;14.20;99.90
6666;DHT22;3369;49.906;8.598;2023-08-30T00:56:22;14.20;99.90
6666;DHT22;3369;49.906;8.598;2023-08-30T00:58:49;14.30;99.90
6666;DHT22;3369;49.906;8.598;2023-08-30T01:01:16;14.30;99.90
6666;DHT22;3369;49.906;8.598;2023-08-30T01:03:42;14.30;99.90
6666;DHT22;3369;49.906;8.598;2023-08-30T01:06:07;14.30;99.90
6666;DHT22;3369;49.906;8.598;2023-08-30T01:08:35;14.20;99.90
6666;DHT22;3369;49.906;8.598;2023-08-30T01:13:53;14.30;99.90
6666;DHT22;3369;49.906;8.598;2023-08-30T01:16:21;14.30;99.90
6666;DHT22;3369;49.906;8.598;2023-08-30T01:18:49;14.30;99.90
6666;DHT22;3369;49.906;8.598;2023-08-30T01:21:38;14.30;99.90
6666;DHT22;3369;49.906;8.598;2023-08-30T01:24:12;14.30;99.90
6666;DHT22;3369;49.906;8.598;2023-08-30T01:27:10;14.30;99.90
6666;DHT22;3369;49.906;8.598;2023-08-30T01:29:37;14.30;99.90
6666;DHT22;3369;49.906;8.598;2023-08-30T01:32:05;14.30;99.90
6666;DHT22;3369;49.906;8.598;2023-08-30T01:34:32;14.40;99.90
6666;DHT22;3369;49.906;8.598;2023-08-30T01:36:59;14.40;99.90
6666;DHT22;3369;49.906;8.598;2023-08-30T01:39:26;14.40;99.90
6666;DHT22;3369;49.906;8.598;2023-08-30T01:41:52;14.40;99.90
6666;DHT22;3369;49.906;8.598;2023-08-30T01:44:30;14.40;99.90
6666;DHT22;3369;49.906;8.598;2023-08-30T01:46:57;14.40;99.90
6666;DHT22;3369;49.906;8.598;2023-08-30T01:49:24;14.40;99.90
6666;DHT22;3369;49.906;8.598;2023-08-30T01:51:51;14.40;99.90
6666;DHT22;3369;49.906;8.598;2023-08-30T01:54:18;14.40;99.90
6666;DHT22;3369;49.906;8.598;2023-08-30T01:56:45;14.40;99.90
6666;DHT22;3369;49.906;8.598;2023-08-30T01:59:11;14.40;99.90
6666;DHT22;3369;49.906;8.598;2023-08-30T02:01:37;14.40;99.90
6666;DHT22;3369;49.906;8.598;2023-08-30T02:04:03;14.40;99.90
6666;DHT22;3369;49.906;8.598;2023-08-30T02:06:40;14.30;99.90
6666;DHT22;3369;49.906;8.598;2023-08-30T02:09:28;14.40;99.90
6666;DHT22;3369;49.906;8.598;2023-08-30T02:11:55;14.40;99.90
6666;DHT22;3369;49.906;8.598;2023-08-30T02:14:22;14.40;99.90
6666;DHT22;3369;49.906;8.598;2023-08-30T02:16:49;14.40;99.90
6666;DHT22;3369;49.906;8.598;2023-08-30T02:19:15;14.40;99.90
6666;DHT22;3369;49.906;8.598;2023-08-30T02:21:42;14.40;99.90
6666;DHT22;3369;49.906;8.598;2023-08-30T02:24:09;14.40;99.90
6666;DHT22;3369;49.906;8.598;2023-08-30T02:26:35;14.50;99.90
6666;DHT22;3369;49.906;8.598;2023-08-30T02:29:00;14.50;99.90
6666;DHT22;3369;49.906;8.598;2023-08-30T02:31:26;14.50;99.90
6666;DHT22;3369;49.906;8.598;2023-08-30T02:33:51;14.40;99.90
6666;DHT22;3369;49.906;8.598;2023-08-30T02:36:17;14.40;99.90
6666;DHT22;3369;49.906;8.598;2023-08-30T02:38:43;14.40;99.90
6666;DHT22;3369;49.906;8.598;2023-08-30T02:41:08;14.40;99.90
6666;DHT22;3369;49.906;8.598;2023-08-30T02:43:35;14.40;99.90
6666;DHT22;3369;49.906;8.598;2023-08-30T02:46:01;14.40;99.90
6666;DHT22;3369;49.906;8.598;2023-08-30T02:48:29;14.40;99.90
6666;DHT22;3369;49.906;8.598;2023-08-30T02:50:54;14.30;99.90
6666;DHT22;3369;49.906;8.598;2023-08-30T02:53:20;14.30;99.90
6666;DHT22;3369;49.906;8.598;2023-08-30T02:55:47;14.30;99.90
6666;DHT22;3369;49.906;8.598;2023-08-30T02:58:13;14.30;99.90
6666;DHT22;3369;49.906;8.598;2023-08-30T03:00:39;14.30;99.90
6666;DHT22;3369;49.906;8.598;2023-08-30T03:03:04;14.30;99.90
6666;DHT22;3369;49.906;8.598;2023-08-30T03:05:30;14.30;99.90
6666;DHT22;3369;49.906;8.598;2023-08-30T03:07:56;14.30;99.90
6666;DHT22;3369;49.906;8.598;2023-08-30T03:10:22;14.30;99.90
6666;DHT22;3369;49.906;8.598;2023-08-30T03:12:48;14.30;99.90
6666;DHT22;3369;49.906;8.598;2023-08-30T03:15:14;14.30;99.90
6666;DHT22;3369;49.906;8.598;2023-08-30T03:17:39;14.30;99.90
6666;DHT22;3369;49.906;8.598;2023-08-30T03:20:05;14.20;99.90
6666;DHT22;3369;49.906;8.598;2023-08-30T03:22:31;14.20;99.90
6666;DHT22;3369;49.906;8.598;2023-08-30T03:24:57;14.30;99.90
6666;DHT22;3369;49.906;8.598;2023-08-30T03:27:23;14.30;99.90
6666;DHT22;3369;49.906;8.598;2023-08-30T03:29:49;14.30;99.90
6666;DHT22;3369;49.906;8.598;2023-08-30T03:32:17;14.30;99.90
6666;DHT22;3369;49.906;8.598;2023-08-30T03:34:46;14.30;99.90
6666;DHT22;3369;49.906;8.598;2023-08-30T03:37:15;14.30;99.90
6666;DHT22;3369;49.906;8.598;2023-08-30T03:39:42;14.30;99.90
6666;DHT22;3369;49.906;8.598;2023-08-30T03:42:08;14.30;99.90
6666;DHT22;3369;49.906;8.598;2023-08-30T03:44:34;14.30;99.90
6666;DHT22;3369;49.906;8.598;2023-08-30T03:47:00;14.30;99.90
6666;DHT22;3369;49.906;8.598;2023-08-30T03:49:25;14.30;99.90
6666;DHT22;3369;49.906;8.598;2023-08-30T03:51:51;14.30;99.90
6666;DHT22;3369;49.906;8.598;2023-08-30T03:54:17;14.30;99.90
6666;DHT22;3369;49.906;8.598;2023-08-30T03:56:43;14.30;99.90
6666;DHT22;3369;49.906;8.598;2023-08-30T03:59:09;14.20;99.90
6666;DHT22;3369;49.906;8.598;2023-08-30T04:01:35;14.30;99.90
6666;DHT22;3369;49.906;8.598;2023-08-30T04:04:00;14.30;99.90
6666;DHT22;3369;49.906;8.598;2023-08-30T04:06:26;14.30;99.90
6666;DHT22;3369;49.906;8.598;2023-08-30T04:08:52;14.30;99.90
6666;DHT22;3369;49.906;8.598;2023-08-30T04:11:17;14.30;99.90
6666;DHT22;3369;49.906;8.598;2023-08-30T04:13:43;14.30;99.90
6666;DHT22;3369;49.906;8.598;2023-08-30T04:16:08;14.20;99.90
6666;DHT22;3369;49.906;8.598;2023-08-30T04:18:34;14.20;99.90
6666;DHT22;3369;49.906;8.598;2023-08-30T04:21:00;14.20;99.90
6666;DHT22;3369;49.906;8.598;2023-08-30T04:23:31;14.20;99.90
6666;DHT22;3369;49.906;8.598;2023-08-30T04:25:56;14.20;99.90
6666;DHT22;3369;49.906;8.598;2023-08-30T04:28:22;14.20;99.90
6666;DHT22;3369;49.906;8.598;2023-08-30T04:30:48;14.20;99.90
6666;DHT22;3369;49.906;8.598;2023-08-30T04:33:13;14.20;99.90
6666;DHT22;3369;49.906;8.598;2023-08-30T04:35:39;14.20;99.90
6666;DHT22;3369;49.906;8.598;2023-08-30T04:38:05;14.20;99.90
6666;DHT22;3369;49.906;8.598;2023-08-30T04:40:31;14.20;99.90
6666;DHT22;3369;49.906;8.598;2023-08-30T04:43:01;14.20;99.90
6666;DHT22;3369;49.906;8.598;2023-08-30T04:45:26;14.20;99.90
6666;DHT22;3369;49.906;8.598;2023-08-30T04:47:53;14.20;99.90
6666;DHT22;3369;49.906;8.598;2023-08-30T04:50:18;14.20;99.90
6666;DHT22;3369;49.906;8.598;2023-08-30T04:52:44;14.20;99.90
6666;DHT22;3369;49.906;8.598;2023-08-30T04:55:10;14.20;99.90
6666;DHT22;3369;49.906;8.598;2023-08-30T04:57:35;14.20;99.90
6666;DHT22;3369;49.906;8.598;2023-08-30T05:00:01;14.20;99.90
6666;DHT22;3369;49.906;8.598;2023-08-30T05:02:30;14.20;99.90
6666;DHT22;3369;49.906;8.598;2023-08-30T05:04:56;14.20;99.90
6666;DHT22;3369;49.906;8.598;2023-08-30T05:07:21;14.20;99.90
6666;DHT22;3369;49.906;8.598;2023-08-30T05:09:47;14.20;99.90
6666;DHT22;3369;49.906;8.598;2023-08-30T05:12:13;14.20;99.90
6666;DHT22;3369;49.906;8.598;2023-08-30T05:14:38;14.20;99.90
6666;DHT22;3369;49.906;8.598;2023-08-30T05:17:06;14.20;99.90
6666;DHT22;3369;49.906;8.598;2023-08-30T05:19:31;14.30;99.90
6666;DHT22;3369;49.906;8.598;2023-08-30T05:21:57;14.30;99.90
6666;DHT22;3369;49.906;8.598;2023-08-30T05:24:24;14.30;99.90
6666;DHT22;3369;49.906;8.598;2023-08-30T05:26:51;14.30;99.90
6666;DHT22;3369;49.906;8.598;2023-08-30T05:29:17;14.30;99.90
6666;DHT22;3369;49.906;8.598;2023-08-30T05:31:43;14.30;99.90
6666;DHT22;3369;49.906;8.598;2023-08-30T05:34:09;14.40;99.90
6666;DHT22;3369;49.906;8.598;2023-08-30T05:36:35;14.40;99.90
6666;DHT22;3369;49.906;8.598;2023-08-30T05:39:01;14.40;99.90
6666;DHT22;3369;49.906;8.598;2023-08-30T05:41:28;14.40;99.90
6666;DHT22;3369;49.906;8.598;2023-08-30T05:43:54;14.50;99.90
6666;DHT22;3369;49.906;8.598;2023-08-30T05:46:20;14.50;99.90
6666;DHT22;3369;49.906;8.598;2023-08-30T05:48:45;14.50;99.90
6666;DHT22;3369;49.906;8.598;2023-08-30T05:51:11;14.50;99.90
6666;DHT22;3369;49.906;8.598;2023-08-30T05:53:37;14.60;99.90
6666;DHT22;3369;49.906;8.598;2023-08-30T05:56:03;14.60;99.90
6666;DHT22;3369;49.906;8.598;2023-08-30T05:58:29;14.60;99.90
6666;DHT22;3369;49.906;8.598;2023-08-30T06:00:56;14.60;99.90
6666;DHT22;3369;49.906;8.598;2023-08-30T06:03:21;14.60;99.90
6666;DHT22;3369;49.906;8.598;2023-08-30T06:05:47;14.70;99.90
6666;DHT22;3369;49.906;8.598;2023-08-30T06:08:14;14.70;99.90
6666;DHT22;3369;49.906;8.598;2023-08-30T06:10:40;14.70;99.90
6666;DHT22;3369;49.906;8.598;2023-08-30T06:13:05;14.80;99.90
6666;DHT22;3369;49.906;8.598;2023-08-30T06:15:31;14.80;99.90
6666;DHT22;3369;49.906;8.598;2023-08-30T06:17:57;14.80;99.90
6666;DHT22;3369;49.906;8.598;2023-08-30T06:20:24;14.80;99.90
6666;DHT22;3369;49.906;8.598;2023-08-30T06:22:49;14.90;99.90
6666;DHT22;3369;49.906;8.598;2023-08-30T06:25:15;14.90;99.90
6666;DHT22;3369;49.906;8.598;2023-08-30T06:27:55;14.90;99.90
6666;DHT22;3369;49.906;8.598;2023-08-30T06:30:22;15.00;99.90
6666;DHT22;3369;49.906;8.598;2023-08-30T06:32:48;15.00;99.90
6666;DHT22;3369;49.906;8.598;2023-08-30T06:35:14;15.00;99.90
6666;DHT22;3369;49.906;8.598;2023-08-30T06:37:40;15.10;99.90
6666;DHT22;3369;49.906;8.598;2023-08-30T06:40:06;15.10;99.90
6666;DHT22;3369;49.906;8.598;2023-08-30T06:42:32;15.10;99.90
6666;DHT22;3369;49.906;8.598;2023-08-30T06:44:58;15.10;99.90
6666;DHT22;3369;49.906;8.598;2023-08-30T06:47:24;15.20;99.90
6666;DHT22;3369;49.906;8.598;2023-08-30T06:49:49;15.20;99.90
6666;DHT22;3369;49.906;8.598;2023-08-30T06:52:15;15.30;99.90
6666;DHT22;3369;49.906;8.598;2023-08-30T06:54:41;15.30;99.90
6666;DHT22;3369;49.906;8.598;2023-08-30T06:57:06;15.30;99.90
6666;DHT22;3369;49.906;8.598;2023-08-30T06:59:32;15.40;99.90
6666;DHT22;3369;49.906;8.598;2023-08-30T07:01:58;15.40;99.90
6666;DHT22;3369;49.906;8.598;2023-08-30T07:04:24;15.50;99.90
6666;DHT22;3369;49.906;8.598;2023-08-30T07:06:50;15.50;99.90
6666;DHT22;3369;49.906;8.598;2023-08-30T07:09:16;15.60;99.90
6666;DHT22;3369;49.906;8.598;2023-08-30T07:11:43;15.70;99.90
6666;DHT22;3369;49.906;8.598;2023-08-30T07:14:12;15.70;99.90
6666;DHT22;3369;49.906;8.598;2023-08-30T07:16:40;15.80;99.90
6666;DHT22;3369;49.906;8.598;2023-08-30T07:19:06;15.90;99.90
6666;DHT22;3369;49.906;8.598;2023-08-30T07:21:32;16.00;99.90
6666;DHT22;3369;49.906;8.598;2023-08-30T07:24:01;16.00;99.90
6666;DHT22;3369;49.906;8.598;2023-08-30T07:26:27;16.00;99.90
6666;DHT22;3369;49.906;8.598;2023-08-30T07:28:53;16.00;99.90
6666;DHT22;3369;49.906;8.598;2023-08-30T07:31:18;16.10;99.90
6666;DHT22;3369;49.906;8.598;2023-08-30T07:33:44;16.10;99.90
6666;DHT22;3369;49.906;8.598;2023-08-30T07:36:10;16.10;99.90
6666;DHT22;3369;49.906;8.598;2023-08-30T07:38:37;16.20;99.90
6666;DHT22;3369;49.906;8.598;2023-08-30T07:41:03;16.20;99.90
6666;DHT22;3369;49.906;8.598;2023-08-30T07:43:28;16.30;99.90
6666;DHT22;3369;49.906;8.598;2023-08-30T07:45:54;16.30;99.90
6666;DHT22;3369;49.906;8.598;2023-08-30T07:48:20;16.30;99.90
6666;DHT22;3369;49.906;8.598;2023-08-30T07:50:46;16.30;99.90
6666;DHT22;3369;49.906;8.598;2023-08-30T07:53:12;16.40;99.90
6666;DHT22;3369;49.906;8.598;2023-08-30T07:55:37;16.50;99.90
6666;DHT22;3369;49.906;8.598;2023-08-30T07:58:03;16.50;99.90
6666;DHT22;3369;49.906;8.598;2023-08-30T08:00:29;16.70;99.90
6666;DHT22;3369;49.906;8.598;2023-08-30T08:02:55;16.80;99.90
6666;DHT22;3369;49.906;8.598;2023-08-30T08:05:21;16.90;99.90
6666;DHT22;3369;49.906;8.598;2023-08-30T08:07:51;17.00;99.90
6666;DHT22;3369;49.906;8.598;2023-08-30T08:10:17;17.00;99.90
6666;DHT22;3369;49.906;8.598;2023-08-30T08:12:43;17.00;99.90
6666;DHT22;3369;49.906;8.598;2023-08-30T08:15:09;17.00;99.90
6666;DHT22;3369;49.906;8.598;2023-08-30T08:17:35;17.10;99.90
6666;DHT22;3369;49.906;8.598;2023-08-30T08:20:01;17.10;99.90
6666;DHT22;3369;49.906;8.598;2023-08-30T08:22:27;17.20;99.90
6666;DHT22;3369;49.906;8.598;2023-08-30T08:24:54;17.30;99.90
6666;DHT22;3369;49.906;8.598;2023-08-30T08:27:21;17.30;99.90
6666;DHT22;3369;49.906;8.598;2023-08-30T08:29:47;17.40;99.90
6666;DHT22;3369;49.906;8.598;2023-08-30T08:32:13;17.40;99.90
6666;DHT22;3369;49.906;8.598;2023-08-30T08:34:38;17.50;99.90
6666;DHT22;3369;49.906;8.598;2023-08-30T08:37:04;17.50;99.90
6666;DHT22;3369;49.906;8.598;2023-08-30T08:39:30;17.70;99.90
6666;DHT22;3369;49.906;8.598;2023-08-30T08:41:56;17.70;99.90
6666;DHT22;3369;49.906;8.598;2023-08-30T08:44:26;17.80;99.90
6666;DHT22;3369;49.906;8.598;2023-08-30T08:46:56;17.80;99.90
6666;DHT22;3369;49.906;8.598;2023-08-30T08:49:23;17.90;99.90
6666;DHT22;3369;49.906;8.598;2023-08-30T08:51:53;17.90;99.90
6666;DHT22;3369;49.906;8.598;2023-08-30T08:54:20;17.90;99.90
6666;DHT22;3369;49.906;8.598;2023-08-30T08:56:46;17.90;99.90
6666;DHT22;3369;49.906;8.598;2023-08-30T08:59:12;18.00;99.90
6666;DHT22;3369;49.906;8.598;2023-08-30T09:01:38;18.00;99.90
6666;DHT22;3369;49.906;8.598;2023-08-30T09:04:10;18.00;99.90
6666;DHT22;3369;49.906;8.598;2023-08-30T09:06:37;17.90;99.90
6666;DHT22;3369;49.906;8.598;2023-08-30T09:09:03;17.80;99.90
6666;DHT22;3369;49.906;8.598;2023-08-30T09:11:30;17.80;99.90
6666;DHT22;3369;49.906;8.598;2023-08-30T09:13:56;17.80;99.90
6666;DHT22;3369;49.906;8.598;2023-08-30T09:16:22;17.90;99.90
6666;DHT22;3369;49.906;8.598;2023-08-30T09:19:01;18.00;99.90
6666;DHT22;3369;49.906;8.598;2023-08-30T09:21:28;18.00;99.90
6666;DHT22;3369;49.906;8.598;2023-08-30T09:24:01;18.10;99.90
6666;DHT22;3369;49.906;8.598;2023-08-30T09:26:28;18.20;99.90
6666;DHT22;3369;49.906;8.598;2023-08-30T09:28:55;18.30;99.90
6666;DHT22;3369;49.906;8.598;2023-08-30T09:31:21;18.40;99.90
6666;DHT22;3369;49.906;8.598;2023-08-30T09:33:47;18.40;99.90
6666;DHT22;3369;49.906;8.598;2023-08-30T09:36:19;18.50;99.90
6666;DHT22;3369;49.906;8.598;2023-08-30T09:38:50;18.60;99.90
6666;DHT22;3369;49.906;8.598;2023-08-30T09:41:18;18.80;99.90
6666;DHT22;3369;49.906;8.598;2023-08-30T09:43:44;18.90;99.90
6666;DHT22;3369;49.906;8.598;2023-08-30T09:46:09;19.00;99.90
6666;DHT22;3369;49.906;8.598;2023-08-30T09:48:37;19.10;99.90
6666;DHT22;3369;49.906;8.598;2023-08-30T09:51:03;19.20;99.90
6666;DHT22;3369;49.906;8.598;2023-08-30T09:53:40;19.40;99.90
6666;DHT22;3369;49.906;8.598;2023-08-30T09:56:06;19.50;99.90
6666;DHT22;3369;49.906;8.598;2023-08-30T09:58:34;19.60;99.90
6666;DHT22;3369;49.906;8.598;2023-08-30T10:01:00;19.70;99.90
6666;DHT22;3369;49.906;8.598;2023-08-30T10:03:30;19.80;99.90
6666;DHT22;3369;49.906;8.598;2023-08-30T10:05:56;19.80;99.90
6666;DHT22;3369;49.906;8.598;2023-08-30T10:08:25;19.80;99.90
6666;DHT22;3369;49.906;8.598;2023-08-30T10:10:55;19.90;99.90
6666;DHT22;3369;49.906;8.598;2023-08-30T10:13:23;20.00;99.90
6666;DHT22;3369;49.906;8.598;2023-08-30T10:15:53;20.00;99.90
6666;DHT22;3369;49.906;8.598;2023-08-30T10:18:25;20.20;99.90
6666;DHT22;3369;49.906;8.598;2023-08-30T10:20:54;20.20;99.90
6666;DHT22;3369;49.906;8.598;2023-08-30T10:23:21;20.30;99.90
6666;DHT22;3369;49.906;8.598;2023-08-30T10:25:49;20.40;99.90
6666;DHT22;3369;49.906;8.598;2023-08-30T10:28:16;20.40;99.90
6666;DHT22;3369;49.906;8.598;2023-08-30T10:30:43;20.50;99.90
6666;DHT22;3369;49.906;8.598;2023-08-30T10:33:13;20.50;99.90
6666;DHT22;3369;49.906;8.598;2023-08-30T10:35:50;20.60;99.90
6666;DHT22;3369;49.906;8.598;2023-08-30T10:38:32;20.70;99.90
6666;DHT22;3369;49.906;8.598;2023-08-30T10:41:08;20.70;99.90
6666;DHT22;3369;49.906;8.598;2023-08-30T10:43:35;20.80;99.90
6666;DHT22;3369;49.906;8.598;2023-08-30T10:46:03;20.80;99.90
6666;DHT22;3369;49.906;8.598;2023-08-30T10:48:39;20.90;99.90
6666;DHT22;3369;49.906;8.598;2023-08-30T10:51:35;21.00;99.90
6666;DHT22;3369;49.906;8.598;2023-08-30T10:54:16;21.00;99.90
6666;DHT22;3369;49.906;8.598;2023-08-30T10:59:21;20.90;99.90
6666;DHT22;3369;49.906;8.598;2023-08-30T11:01:48;20.80;99.90
6666;DHT22;3369;49.906;8.598;2023-08-30T11:04:17;20.70;99.90
6666;DHT22;3369;49.906;8.598;2023-08-30T11:06:48;20.70;99.90
6666;DHT22;3369;49.906;8.598;2023-08-30T11:09:15;20.80;99.90
6666;DHT22;3369;49.906;8.598;2023-08-30T11:11:47;20.90;99.80
6666;DHT22;3369;49.906;8.598;2023-08-30T11:14:14;20.90;99.70
6666;DHT22;3369;49.906;8.598;2023-08-30T11:16:40;21.00;99.50
6666;DHT22;3369;49.906;8.598;2023-08-30T11:19:07;21.20;99.20
6666;DHT22;3369;49.906;8.598;2023-08-30T11:21:44;21.30;99.20
6666;DHT22;3369;49.906;8.598;2023-08-30T11:24:10;21.30;99.10
6666;DHT22;3369;49.906;8.598;2023-08-30T11:26:37;21.40;99.10
6666;DHT22;3369;49.906;8.598;2023-08-30T11:29:06;21.40;98.20
6666;DHT22;3369;49.906;8.598;2023-08-30T11:31:33;21.50;99.00
6666;DHT22;3369;49.906;8.598;2023-08-30T11:34:00;21.50;96.50
6666;DHT22;3369;49.906;8.598;2023-08-30T11:36:30;21.60;96.90
6666;DHT22;3369;49.906;8.598;2023-08-30T11:38:57;21.60;97.30
6666;DHT22;3369;49.906;8.598;2023-08-30T11:41:24;21.70;97.30
6666;DHT22;3369;49.906;8.598;2023-08-30T11:43:50;21.70;97.40
6666;DHT22;3369;49.906;8.598;2023-08-30T11:46:18;21.60;96.90
6666;DHT22;3369;49.906;8.598;2023-08-30T11:48:45;21.40;96.40
6666;DHT22;3369;49.906;8.598;2023-08-30T11:51:12;21.20;96.40
6666;DHT22;3369;49.906;8.598;2023-08-30T11:53:38;21.00;96.90
6666;DHT22;3369;49.906;8.598;2023-08-30T11:56:08;20.80;97.30
6666;DHT22;3369;49.906;8.598;2023-08-30T11:58:35;20.60;97.60
6666;DHT22;3369;49.906;8.598;2023-08-30T12:01:01;20.50;97.80
6666;DHT22;3369;49.906;8.598;2023-08-30T12:03:28;20.50;98.00
6666;DHT22;3369;49.906;8.598;2023-08-30T12:05:54;20.40;98.00
6666;DHT22;3369;49.906;8.598;2023-08-30T12:08:22;20.30;98.00
6666;DHT22;3369;49.906;8.598;2023-08-30T12:10:49;20.30;98.30
6666;DHT22;3369;49.906;8.598;2023-08-30T12:13:31;20.20;98.40
6666;DHT22;3369;49.906;8.598;2023-08-30T12:15:59;20.20;98.70
6666;DHT22;3369;49.906;8.598;2023-08-30T12:18:26;20.10;98.50
6666;DHT22;3369;49.906;8.598;2023-08-30T12:20:59;20.10;98.70
6666;DHT22;3369;49.906;8.598;2023-08-30T12:23:30;20.10;98.80
6666;DHT22;3369;49.906;8.598;2023-08-30T12:26:07;20.10;99.00
6666;DHT22;3369;49.906;8.598;2023-08-30T12:28:40;20.20;98.60
6666;DHT22;3369;49.906;8.598;2023-08-30T12:31:11;20.20;98.70
6666;DHT22;3369;49.906;8.598;2023-08-30T12:33:37;20.30;98.80
6666;DHT22;3369;49.906;8.598;2023-08-30T12:36:05;20.50;98.80
6666;DHT22;3369;49.906;8.598;2023-08-30T12:38:31;20.70;98.40
6666;DHT22;3369;49.906;8.598;2023-08-30T12:40:58;20.90;98.20
6666;DHT22;3369;49.906;8.598;2023-08-30T12:43:23;21.10;97.70
6666;DHT22;3369;49.906;8.598;2023-08-30T12:45:50;21.20;97.40
6666;DHT22;3369;49.906;8.598;2023-08-30T12:48:17;21.40;96.90
6666;DHT22;3369;49.906;8.598;2023-08-30T12:50:47;21.50;96.30
6666;DHT22;3369;49.906;8.598;2023-08-30T12:53:13;21.60;95.90
6666;DHT22;3369;49.906;8.598;2023-08-30T12:55:42;21.60;95.80
6666;DHT22;3369;49.906;8.598;2023-08-30T12:58:08;21.70;95.70
6666;DHT22;3369;49.906;8.598;2023-08-30T13:00:35;21.80;94.60
6666;DHT22;3369;49.906;8.598;2023-08-30T13:03:01;21.90;94.80
6666;DHT22;3369;49.906;8.598;2023-08-30T13:05:28;22.00;94.40
6666;DHT22;3369;49.906;8.598;2023-08-30T13:07:56;22.00;94.60
6666;DHT22;3369;49.906;8.598;2023-08-30T13:10:24;22.10;94.60
6666;DHT22;3369;49.906;8.598;2023-08-30T13:12:50;22.10;94.70
6666;DHT22;3369;49.906;8.598;2023-08-30T13:15:16;22.10;94.90
6666;DHT22;3369;49.906;8.598;2023-08-30T13:17:42;22.10;94.60
6666;DHT22;3369;49.906;8.598;2023-08-30T13:20:09;22.10;94.30
6666;DHT22;3369;49.906;8.598;2023-08-30T13:22:34;22.20;93.80
6666;DHT22;3369;49.906;8.598;2023-08-30T13:25:00;22.20;93.60
6666;DHT22;3369;49.906;8.598;2023-08-30T13:27:26;22.10;92.70
6666;DHT22;3369;49.906;8.598;2023-08-30T13:29:52;22.10;92.90
6666;DHT22;3369;49.906;8.598;2023-08-30T13:32:18;22.20;92.90
6666;DHT22;3369;49.906;8.598;2023-08-30T13:34:43;22.20;93.10
6666;DHT22;3369;49.906;8.598;2023-08-30T13:37:11;22.30;93.00
6666;DHT22;3369;49.906;8.598;2023-08-30T13:39:39;22.30;93.00
6666;DHT22;3369;49.906;8.598;2023-08-30T13:42:05;22.40;93.20
6666;DHT22;3369;49.906;8.598;2023-08-30T13:44:31;22.50;93.10
6666;DHT22;3369;49.906;8.598;2023-08-30T13:46:57;22.50;92.50
6666;DHT22;3369;49.906;8.598;2023-08-30T13:49:23;22.40;92.00
6666;DHT22;3369;49.906;8.598;2023-08-30T13:51:49;22.40;92.50
6666;DHT22;3369;49.906;8.598;2023-08-30T13:54:15;22.50;92.50
6666;DHT22;3369;49.906;8.598;2023-08-30T13:56:41;22.50;92.40
6666;DHT22;3369;49.906;8.598;2023-08-30T13:59:09;22.50;92.50
6666;DHT22;3369;49.906;8.598;2023-08-30T14:01:35;22.40;92.40
6666;DHT22;3369;49.906;8.598;2023-08-30T14:04:01;22.30;92.50
6666;DHT22;3369;49.906;8.598;2023-08-30T14:06:30;22.30;93.00
6666;DHT22;3369;49.906;8.598;2023-08-30T14:08:56;22.30;92.30
6666;DHT22;3369;49.906;8.598;2023-08-30T14:11:21;22.30;92.10
6666;DHT22;3369;49.906;8.598;2023-08-30T14:13:47;22.20;92.40
6666;DHT22;3369;49.906;8.598;2023-08-30T14:16:13;22.10;92.20
6666;DHT22;3369;49.906;8.598;2023-08-30T14:18:39;22.00;92.20
6666;DHT22;3369;49.906;8.598;2023-08-30T14:21:05;21.90;92.30
6666;DHT22;3369;49.906;8.598;2023-08-30T14:23:31;21.90;92.60
6666;DHT22;3369;49.906;8.598;2023-08-30T14:26:03;21.80;92.80
6666;DHT22;3369;49.906;8.598;2023-08-30T14:28:37;21.70;93.00
6666;DHT22;3369;49.906;8.598;2023-08-30T14:31:03;21.80;93.30
6666;DHT22;3369;49.906;8.598;2023-08-30T14:33:31;21.80;93.60
6666;DHT22;3369;49.906;8.598;2023-08-30T14:35:57;21.80;93.40
6666;DHT22;3369;49.906;8.598;2023-08-30T14:38:23;21.80;93.40
6666;DHT22;3369;49.906;8.598;2023-08-30T14:41:00;21.80;93.30
6666;DHT22;3369;49.906;8.598;2023-08-30T14:43:28;21.70;93.10
6666;DHT22;3369;49.906;8.598;2023-08-30T14:46:04;21.60;93.10
6666;DHT22;3369;49.906;8.598;2023-08-30T14:48:31;21.50;93.20
6666;DHT22;3369;49.906;8.598;2023-08-30T14:50:58;21.50;93.30
6666;DHT22;3369;49.906;8.598;2023-08-30T14:53:24;21.40;93.50
6666;DHT22;3369;49.906;8.598;2023-08-30T14:55:49;21.40;93.70
6666;DHT22;3369;49.906;8.598;2023-08-30T14:58:15;21.30;93.80
6666;DHT22;3369;49.906;8.598;2023-08-30T15:00:41;21.30;93.90
6666;DHT22;3369;49.906;8.598;2023-08-30T15:03:07;21.30;93.80
6666;DHT22;3369;49.906;8.598;2023-08-30T15:05:33;21.30;94.00
6666;DHT22;3369;49.906;8.598;2023-08-30T15:07:59;21.30;94.10
6666;DHT22;3369;49.906;8.598;2023-08-30T15:10:25;21.30;94.20
6666;DHT22;3369;49.906;8.598;2023-08-30T15:12:50;21.40;94.50
6666;DHT22;3369;49.906;8.598;2023-08-30T15:15:16;21.50;94.40
6666;DHT22;3369;49.906;8.598;2023-08-30T15:17:44;21.60;94.50
6666;DHT22;3369;49.906;8.598;2023-08-30T15:20:10;21.70;94.70
6666;DHT22;3369;49.906;8.598;2023-08-30T15:22:36;21.80;93.00
6666;DHT22;3369;49.906;8.598;2023-08-30T15:25:01;21.80;92.90
6666;DHT22;3369;49.906;8.598;2023-08-30T15:27:28;21.70;93.20
6666;DHT22;3369;49.906;8.598;2023-08-30T15:29:54;21.70;93.80
6666;DHT22;3369;49.906;8.598;2023-08-30T15:32:21;21.80;94.10
6666;DHT22;3369;49.906;8.598;2023-08-30T15:34:48;21.80;93.40
6666;DHT22;3369;49.906;8.598;2023-08-30T15:37:14;21.70;93.30
6666;DHT22;3369;49.906;8.598;2023-08-30T15:39:40;21.70;92.50
6666;DHT22;3369;49.906;8.598;2023-08-30T15:42:06;21.60;92.70
6666;DHT22;3369;49.906;8.598;2023-08-30T15:44:31;21.50;92.70
6666;DHT22;3369;49.906;8.598;2023-08-30T15:46:57;21.40;92.70
6666;DHT22;3369;49.906;8.598;2023-08-30T15:49:23;21.40;93.00
6666;DHT22;3369;49.906;8.598;2023-08-30T15:51:48;21.30;93.20
6666;DHT22;3369;49.906;8.598;2023-08-30T15:54:14;21.30;93.40
6666;DHT22;3369;49.906;8.598;2023-08-30T15:56:41;21.20;93.10
6666;DHT22;3369;49.906;8.598;2023-08-30T15:59:09;21.10;93.20
6666;DHT22;3369;49.906;8.598;2023-08-30T16:01:34;21.00;92.90
6666;DHT22;3369;49.906;8.598;2023-08-30T16:04:00;20.90;93.00
6666;DHT22;3369;49.906;8.598;2023-08-30T16:06:26;20.90;93.20